< < Back
Terminal Aerodrome Forecast


Current Version              Previous Versions:   1  2  3  4  5  6  7  8  9  

Terminal Aerodrome Forecast

582
FTUS44 KBMX 070520
TAFANB
TAF
KANB 070520Z 0706/0806 00000KT P6SM SKC
     FM071500 09005KT P6SM SKC=

Latest METAR

975
SAUS70 KWBC 070500
MTRANB
METAR KANB 070453Z AUTO 00000KT 10SM CLR 16/14 A3012 RMK AO2 SLP193
T01560139


USA.gov is the U.S. government's official web portal to all federal, state and local government web resources and services.